Time;durP1;ratioP1;P1;durP2;ratioP2;P2;SDS_P1;SDS_P2;PMS_P1;PMS_P2;Temp;Humidity;BMP_temperature;BMP_pressure;BME280_temperature;BME280_humidity;BME280_pressure;Samples;Min_cycle;Max_cycle;Signal;HPM_P1;HPM_P2
2022/06/13 03:22:49;;;;;;;6.97;2.35;;;18.60;60.40;;;;;;4772383;30;20063;-82
2022/06/13 03:25:30;;;;;;;4.97;1.33;;;18.70;60.70;;;;;;4705499;30;20081;-76
2022/06/13 03:28:30;;;;;;;6.30;1.67;;;18.70;60.70;;;;;;4705320;30;20127;-82
2022/06/13 03:31:26;;;;;;;7.43;1.63;;;18.80;60.80;;;;;;4745388;30;20055;-81
2022/06/13 03:33:56;;;;;;;6.68;1.80;;;18.80;61.30;;;;;;4774289;30;20067;-81
2022/06/13 03:36:35;;;;;;;4.43;1.48;;;18.80;61.30;;;;;;4758563;30;20063;-82
2022/06/13 03:39:19;;;;;;;5.30;1.83;;;18.90;61.60;;;;;;4758484;30;20039;-82
2022/06/13 03:41:54;;;;;;;3.42;1.50;;;18.90;61.80;;;;;;4758337;30;20119;-83
2022/06/13 03:44:27;;;;;;;5.63;1.88;;;18.90;62.00;;;;;;4758139;30;20047;-82
2022/06/13 03:47:03;;;;;;;5.15;2.10;;;19.00;62.10;;;;;;4740868;30;20058;-82
2022/06/13 03:49:39;;;;;;;3.70;1.75;;;19.00;62.10;;;;;;4744161;30;20052;-82
2022/06/13 03:52:09;;;;;;;5.22;1.40;;;19.00;62.30;;;;;;4773128;30;20039;-82
2022/06/13 03:54:54;;;;;;;5.03;1.83;;;19.00;62.40;;;;;;4743314;30;20048;-81
2022/06/13 03:57:47;;;;;;;6.05;1.42;;;19.10;62.50;;;;;;4743371;30;20043;-81
2022/06/13 04:00:35;;;;;;;4.57;1.35;;;19.10;62.40;;;;;;4758081;30;20044;-81
2022/06/13 04:03:06;;;;;;;7.70;1.67;;;19.10;62.40;;;;;;4757527;30;20048;-85
2022/06/13 04:05:42;;;;;;;5.85;1.70;;;19.20;62.50;;;;;;4743236;30;20437;-84
2022/06/13 04:08:11;;;;;;;6.55;1.77;;;19.20;62.60;;;;;;4772983;30;20127;-84
2022/06/13 04:10:59;;;;;;;7.47;1.40;;;19.20;62.50;;;;;;4772204;30;20130;-81
2022/06/13 04:14:04;;;;;;;6.00;1.73;;;19.20;62.70;;;;;;4773639;30;20059;-84
2022/06/13 04:16:41;;;;;;;5.93;1.23;;;19.20;62.60;;;;;;4740169;30;20079;-82
2022/06/13 04:19:24;;;;;;;3.97;1.17;;;19.20;62.80;;;;;;4740645;30;20048;-82
2022/06/13 04:22:15;;;;;;;6.85;1.80;;;19.20;62.90;;;;;;4781857;30;20059;-81
2022/06/13 04:24:50;;;;;;;6.10;1.73;;;19.20;62.80;;;;;;4756023;30;20094;-81
2022/06/13 04:27:21;;;;;;;3.58;1.10;;;19.20;62.90;;;;;;4763374;30;20204;-83
2022/06/13 04:30:14;;;;;;;4.03;1.13;;;19.20;63.20;;;;;;4773358;30;20084;-82
2022/06/13 04:33:01;;;;;;;6.72;1.15;;;19.20;63.00;;;;;;4757666;30;20091;-81
2022/06/13 04:35:32;;;;;;;4.20;1.45;;;19.20;62.90;;;;;;4757462;30;20043;-73
2022/06/13 04:38:00;;;;;;;6.18;1.65;;;19.20;62.90;;;;;;4773402;30;20056;-80
2022/06/13 04:40:28;;;;;;;3.95;0.90;;;19.20;63.50;;;;;;4773114;30;20044;-75
2022/06/13 04:42:55;;;;;;;2.78;0.63;;;19.10;63.10;;;;;;4774875;30;20063;-73
2022/06/13 04:45:26;;;;;;;3.65;0.70;;;19.10;62.70;;;;;;4768577;30;20062;-75
2022/06/13 04:47:55;;;;;;;4.85;1.02;;;19.00;62.30;;;;;;4773320;30;20047;-73
2022/06/13 04:50:31;;;;;;;4.53;0.80;;;18.90;62.30;;;;;;4772106;30;20140;-77
2022/06/13 04:53:01;;;;;;;4.60;0.90;;;18.90;62.40;;;;;;4772961;30;20372;-78
2022/06/13 04:55:40;;;;;;;3.85;0.82;;;18.80;62.50;;;;;;4757360;30;20360;-73
2022/06/13 04:58:33;;;;;;;2.72;0.57;;;18.80;62.60;;;;;;4779750;30;20043;-76
2022/06/13 05:01:11;;;;;;;6.85;0.70;;;18.70;62.90;;;;;;4778634;30;20101;-78
2022/06/13 05:03:42;;;;;;;4.28;0.50;;;18.70;63.20;;;;;;4773940;30;20087;-77
2022/06/13 05:06:30;;;;;;;3.83;0.90;;;18.70;63.20;;;;;;4772654;30;20056;-75
2022/06/13 05:09:05;;;;;;;5.45;0.68;;;18.70;63.40;;;;;;4772969;30;20063;-76
2022/06/13 05:11:37;;;;;;;8.30;1.60;;;18.70;63.40;;;;;;4772475;30;20448;-78
2022/06/13 05:14:14;;;;;;;4.45;0.80;;;18.70;63.40;;;;;;4772700;30;20063;-76
2022/06/13 05:17:07;;;;;;;4.82;0.88;;;18.70;63.30;;;;;;4772829;30;20056;-76
2022/06/13 05:19:55;;;;;;;3.67;1.03;;;18.60;63.40;;;;;;4772761;30;20055;-78
2022/06/13 05:22:37;;;;;;;6.72;0.95;;;18.60;63.80;;;;;;4736135;30;20455;-76
2022/06/13 05:25:24;;;;;;;;;;;18.50;64.20;;;;;;4743170;30;20059;-76
2022/06/13 05:27:50;;;;;;;5.03;1.13;;;18.30;64.10;;;;;;4772043;30;19937;-76
2022/06/13 05:30:17;;;;;;;5.15;0.90;;;18.30;64.50;;;;;;4756898;30;20498;-77
2022/06/13 05:32:44;;;;;;;3.83;0.95;;;18.30;64.60;;;;;;4757061;30;20052;-78
2022/06/13 05:35:15;;;;;;;5.43;0.88;;;18.20;64.50;;;;;;4772353;30;20063;-76
2022/06/13 05:37:42;;;;;;;6.38;1.02;;;18.20;64.80;;;;;;4757282;30;20479;-77
2022/06/13 05:40:14;;;;;;;5.45;0.93;;;18.20;65.30;;;;;;4771953;30;20097;-77
2022/06/13 05:42:39;;;;;;;8.00;1.35;;;18.20;65.60;;;;;;4772946;30;20371;-78
2022/06/13 05:45:05;;;;;;;3.90;0.80;;;18.10;65.80;;;;;;4772189;30;20055;-77
2022/06/13 05:47:31;;;;;;;7.97;0.90;;;18.10;65.90;;;;;;4756581;30;20094;-76
2022/06/13 05:49:57;;;;;;;3.60;0.90;;;18.20;66.10;;;;;;4756519;30;20102;-77
2022/06/13 05:52:23;;;;;;;6.38;1.10;;;18.20;66.10;;;;;;4772327;30;20047;-75
2022/06/13 05:54:49;;;;;;;8.57;1.38;;;18.30;66.30;;;;;;4756300;30;20121;-77
2022/06/13 05:57:16;;;;;;;5.93;1.13;;;18.30;66.30;;;;;;4771824;30;20380;-75
2022/06/13 05:59:41;;;;;;;6.78;1.17;;;18.40;66.30;;;;;;4771669;30;20464;-76
2022/06/13 06:02:09;;;;;;;6.90;1.30;;;18.40;66.20;;;;;;4756217;30;20112;-78
2022/06/13 06:04:35;;;;;;;5.10;1.23;;;18.50;66.20;;;;;;4756385;30;20467;-79
2022/06/13 06:07:01;;;;;;;9.00;1.27;;;18.50;66.30;;;;;;4772030;30;20054;-75
2022/06/13 06:09:26;;;;;;;5.32;1.10;;;18.60;66.30;;;;;;4756098;30;20051;-75
2022/06/13 06:11:52;;;;;;;8.77;1.30;;;18.60;66.20;;;;;;4771990;30;20055;-76
2022/06/13 06:14:18;;;;;;;10.05;1.92;;;18.70;66.30;;;;;;4757576;30;20110;-77
2022/06/13 06:16:44;;;;;;;9.73;1.42;;;18.70;66.30;;;;;;4761733;30;20052;-77
2022/06/13 06:19:10;;;;;;;8.88;1.42;;;18.80;66.30;;;;;;4775523;30;20127;-76
2022/06/13 06:21:35;;;;;;;8.18;1.05;;;18.80;66.20;;;;;;4759530;30;20125;-76
2022/06/13 06:24:01;;;;;;;8.80;1.80;;;18.80;66.10;;;;;;4775640;30;20114;-77
2022/06/13 06:26:27;;;;;;;8.25;1.58;;;18.90;66.10;;;;;;4775615;30;20460;-77
2022/06/13 06:28:54;;;;;;;7.78;1.60;;;18.90;66.10;;;;;;4775548;30;20345;-76
2022/06/13 06:31:20;;;;;;;8.27;1.40;;;19.00;66.00;;;;;;4775183;30;20361;-77
2022/06/13 06:33:49;;;;;;;6.82;0.98;;;19.10;66.00;;;;;;4774841;30;20060;-77
2022/06/13 06:36:15;;;;;;;8.00;1.20;;;19.10;66.00;;;;;;4775321;30;20048;-77
2022/06/13 06:38:41;;;;;;;9.00;1.20;;;19.10;65.80;;;;;;4775993;30;20521;-74
2022/06/13 06:41:07;;;;;;;5.47;1.20;;;19.10;64.60;;;;;;4778478;30;20448;-75
2022/06/13 06:43:33;;;;;;;7.30;1.10;;;19.10;63.80;;;;;;4792997;30;20084;-76
2022/06/13 06:45:59;;;;;;;4.18;1.10;;;19.10;63.30;;;;;;4762991;30;20125;-75
2022/06/13 06:48:26;;;;;;;6.53;1.02;;;19.00;62.80;;;;;;4775000;30;20067;-77
2022/06/13 06:50:52;;;;;;;6.78;1.40;;;18.80;62.80;;;;;;4775155;30;20126;-73
2022/06/13 07:02:00;;;;;;;4.95;1.13;;;18.70;64.30;;;;;;4759157;30;20043;-77
2022/06/13 07:04:28;;;;;;;7.30;1.55;;;18.80;64.20;;;;;;4759837;30;20112;-76
2022/06/13 07:07:00;;;;;;;7.07;1.10;;;18.80;64.20;;;;;;4758715;30;20534;-77
2022/06/13 07:09:26;;;;;;;8.65;1.25;;;18.80;64.20;;;;;;4774561;30;20055;-78
2022/06/13 07:11:54;;;;;;;5.43;1.52;;;18.90;63.90;;;;;;4775069;30;20051;-74
2022/06/13 07:14:26;;;;;;;6.15;1.00;;;18.90;63.60;;;;;;4758765;30;20047;-76
2022/06/13 07:16:52;;;;;;;4.93;1.30;;;18.90;63.70;;;;;;4758793;30;20055;-76
2022/06/13 07:19:18;;;;;;;8.00;1.10;;;18.90;63.30;;;;;;4773581;30;20052;-79
2022/06/13 07:21:44;;;;;;;5.72;1.20;;;18.90;63.50;;;;;;4757397;30;20091;-76
2022/06/13 07:24:10;;;;;;;7.10;0.95;;;18.90;63.70;;;;;;4758648;30;20063;-74
2022/06/13 07:26:37;;;;;;;4.15;0.90;;;19.00;63.40;;;;;;4781617;30;20204;-75
2022/06/13 07:29:03;;;;;;;6.15;1.13;;;18.90;63.30;;;;;;4792467;30;20051;-73
2022/06/13 07:31:44;;;;;;;9.57;0.82;;;19.00;63.50;;;;;;4776848;30;20158;-74
2022/06/13 07:34:19;;;;;;;6.00;1.05;;;19.00;63.60;;;;;;4791716;30;20066;-75
2022/06/13 07:36:46;;;;;;;8.95;0.90;;;19.10;63.80;;;;;;4776679;30;20116;-74
2022/06/13 07:39:11;;;;;;;7.30;1.45;;;19.10;63.80;;;;;;4792344;30;20055;-75
2022/06/13 07:41:39;;;;;;;4.90;0.98;;;19.20;63.80;;;;;;4792022;30;20056;-74
2022/06/13 07:44:06;;;;;;;6.47;1.30;;;19.20;63.80;;;;;;4787629;30;20478;-74
2022/06/13 07:46:32;;;;;;;6.72;1.42;;;19.20;63.70;;;;;;4758345;30;20086;-75
2022/06/13 07:48:59;;;;;;;6.10;1.13;;;19.20;63.70;;;;;;4774136;30;20048;-77
2022/06/13 07:51:26;;;;;;;4.22;1.00;;;19.30;63.80;;;;;;4774317;30;20059;-75
2022/06/13 07:53:51;;;;;;;12.60;1.70;;;19.30;63.90;;;;;;4774812;30;20180;-73
2022/06/13 07:56:21;;;;;;;6.80;1.05;;;19.40;64.20;;;;;;4774483;30;20472;-74
2022/06/13 07:58:49;;;;;;;7.32;1.15;;;19.40;63.30;;;;;;4773925;30;20059;-75
2022/06/13 08:01:16;;;;;;;7.03;1.15;;;19.40;63.30;;;;;;4775975;30;20048;-75
2022/06/13 08:03:42;;;;;;;4.60;0.80;;;19.40;63.50;;;;;;4774147;30;20055;-73
2022/06/13 08:06:10;;;;;;;13.85;1.42;;;19.40;63.70;;;;;;4758182;30;20056;-74
2022/06/13 08:08:39;;;;;;;9.75;1.65;;;19.40;63.80;;;;;;4774154;30;20090;-77
2022/06/13 08:11:07;;;;;;;8.20;1.33;;;19.50;64.00;;;;;;4773661;30;20059;-77
2022/06/13 08:13:34;;;;;;;7.85;1.30;;;19.50;64.10;;;;;;4758880;30;20131;-76
2022/06/13 08:16:00;;;;;;;9.45;1.38;;;19.50;64.10;;;;;;4756229;30;20476;-74
2022/06/13 08:18:26;;;;;;;11.05;1.65;;;19.50;64.10;;;;;;4755525;30;20064;-76
2022/06/13 08:21:08;;;;;;;12.35;1.27;;;19.50;64.10;;;;;;4780855;30;20138;-78
2022/06/13 08:23:34;;;;;;;8.82;1.50;;;19.50;64.30;;;;;;4791496;30;20355;-78
2022/06/13 08:26:02;;;;;;;8.85;1.80;;;19.60;64.20;;;;;;4791184;30;20055;-77
2022/06/13 08:28:28;;;;;;;8.18;1.20;;;19.60;64.20;;;;;;4791372;30;20126;-78
2022/06/13 08:31:12;;;;;;;6.90;1.52;;;19.60;64.20;;;;;;4775598;30;20196;-77
2022/06/13 08:33:38;;;;;;;7.18;1.10;;;19.70;64.10;;;;;;4791360;30;20059;-77
2022/06/13 08:36:06;;;;;;;7.68;1.13;;;19.60;64.20;;;;;;4791265;30;20059;-77
2022/06/13 08:38:32;;;;;;;9.45;1.27;;;19.60;64.10;;;;;;4790929;29;20364;-78
2022/06/13 08:41:42;;;;;;;8.30;1.05;;;19.70;64.20;;;;;;4777793;30;20051;-78
2022/06/13 08:44:18;;;;;;;4.88;0.80;;;19.70;64.10;;;;;;4757265;30;20062;-78
2022/06/13 08:47:05;;;;;;;6.82;1.00;;;19.70;64.10;;;;;;4772870;30;20460;-77
2022/06/13 08:49:46;;;;;;;3.25;0.70;;;19.70;64.00;;;;;;4757579;30;20059;-77
2022/06/13 08:52:23;;;;;;;8.50;1.40;;;19.70;64.10;;;;;;4773230;30;20055;-77
2022/06/13 08:55:09;;;;;;;9.57;1.17;;;19.70;64.10;;;;;;4772290;30;20109;-76
2022/06/13 08:57:38;;;;;;;4.90;0.95;;;19.80;62.80;;;;;;4742448;30;20467;-79
2022/06/13 09:00:33;;;;;;;4.50;1.00;;;19.70;62.80;;;;;;4772928;30;20086;-79
2022/06/13 09:03:11;;;;;;;7.47;0.93;;;19.70;63.00;;;;;;4766540;30;20075;-76
2022/06/13 09:05:56;;;;;;;5.60;1.17;;;19.70;63.40;;;;;;4757078;30;20051;-75
2022/06/13 09:08:40;;;;;;;5.95;1.23;;;19.70;63.50;;;;;;4756977;30;20060;-76
2022/06/13 09:11:16;;;;;;;6.20;1.73;;;19.80;63.40;;;;;;4772745;30;20074;-76
2022/06/13 09:14:02;;;;;;;3.42;1.08;;;19.80;63.40;;;;;;4757033;30;20364;-74
2022/06/13 09:16:32;;;;;;;3.33;0.73;;;19.80;63.50;;;;;;4757276;30;20067;-76
2022/06/13 09:19:01;;;;;;;4.35;1.20;;;19.80;63.60;;;;;;4772655;30;20139;-77
2022/06/13 09:21:37;;;;;;;7.28;1.30;;;19.80;63.70;;;;;;4772264;30;20150;-79
2022/06/13 09:24:27;;;;;;;7.50;1.02;;;19.80;63.70;;;;;;4772227;30;20138;-75
2022/06/13 09:27:02;;;;;;;7.05;1.08;;;19.80;63.60;;;;;;4738903;30;20056;-78
2022/06/13 09:30:17;;;;;;;6.45;1.08;;;19.80;63.50;;;;;;4739089;30;20082;-76
2022/06/13 09:32:56;;;;;;;8.82;1.67;;;19.80;63.50;;;;;;4753518;30;20371;-76
2022/06/13 09:35:26;;;;;;;11.43;1.50;;;19.70;63.40;;;;;;4738757;30;20051;-75
2022/06/13 09:38:18;;;;;;;12.07;1.50;;;19.70;63.30;;;;;;4724344;30;20044;-76
2022/06/13 09:40:53;;;;;;;7.30;1.95;;;19.60;63.00;;;;;;4753301;30;20047;-76
2022/06/13 09:43:38;;;;;;;9.82;1.83;;;19.60;63.00;;;;;;4754400;30;20083;-76
2022/06/13 09:46:28;;;;;;;4.95;1.20;;;19.60;63.20;;;;;;4765289;30;20095;-74
2022/06/13 09:49:05;;;;;;;11.63;1.58;;;19.60;63.40;;;;;;4771498;30;20380;-76
2022/06/13 09:52:12;;;;;;;5.80;1.02;;;19.60;63.30;;;;;;4756515;30;20052;-75
2022/06/13 09:54:53;;;;;;;9.98;1.55;;;19.60;64.00;;;;;;4756274;30;20055;-72
2022/06/13 09:57:33;;;;;;;7.65;1.17;;;19.70;64.00;;;;;;4772023;30;20062;-74
2022/06/13 10:00:11;;;;;;;9.32;1.50;;;19.60;63.90;;;;;;4755088;30;20052;-72
2022/06/13 10:02:44;;;;;;;6.78;1.25;;;19.70;64.00;;;;;;4754938;30;20418;-73
2022/06/13 10:05:21;;;;;;;16.23;2.00;;;19.70;64.30;;;;;;4771224;30;20048;-74
2022/06/13 10:08:14;;;;;;;5.18;1.08;;;19.80;64.30;;;;;;4772509;30;20356;-70
2022/06/13 10:10:51;;;;;;;6.47;1.70;;;19.80;64.30;;;;;;4756261;30;20101;-75
2022/06/13 10:13:23;;;;;;;6.88;1.52;;;19.70;64.20;;;;;;4772154;30;20065;-74
2022/06/13 10:16:26;;;;;;;7.28;1.80;;;19.80;64.40;;;;;;4772124;30;20124;-73
2022/06/13 10:19:20;;;;;;;6.00;1.25;;;19.80;64.30;;;;;;4756396;30;20102;-73
2022/06/13 10:22:03;;;;;;;7.25;1.10;;;19.80;64.50;;;;;;4768017;30;20060;-75
2022/06/13 10:24:44;;;;;;;6.97;1.45;;;19.80;64.40;;;;;;4756268;30;20090;-75
2022/06/13 10:27:34;;;;;;;3.92;0.90;;;19.80;64.30;;;;;;4771361;30;20070;-72
2022/06/13 10:30:28;;;;;;;7.63;1.70;;;19.80;64.90;;;;;;4756663;30;20098;-74
2022/06/13 10:33:10;;;;;;;5.05;0.98;;;19.90;64.20;;;;;;4754894;30;20473;-73
2022/06/13 10:35:51;;;;;;;4.50;1.20;;;19.80;64.10;;;;;;4745828;30;20499;-75
2022/06/13 10:38:35;;;;;;;4.72;1.00;;;19.90;64.30;;;;;;4741281;30;20091;-73
2022/06/13 10:41:01;;;;;;;;;;;19.90;64.30;;;;;;4756754;30;20103;-73
2022/06/13 10:43:27;;;;;;;4.88;1.40;;;19.90;64.30;;;;;;4770111;30;20342;-76
2022/06/13 10:45:55;;;;;;;6.13;1.33;;;19.90;64.50;;;;;;4771622;30;20055;-75
2022/06/13 10:48:29;;;;;;;4.43;1.23;;;19.90;64.50;;;;;;4755670;30;20455;-78
2022/06/13 10:50:58;;;;;;;5.00;1.60;;;19.90;65.20;;;;;;4771305;30;20055;-79
2022/06/13 10:53:38;;;;;;;4.45;1.00;;;20.00;64.80;;;;;;4752000;30;20052;-76
2022/06/13 10:56:08;;;;;;;5.22;1.40;;;20.00;64.90;;;;;;4737954;30;20063;-75
2022/06/13 10:58:46;;;;;;;5.32;1.40;;;20.00;64.50;;;;;;4753744;30;20467;-77
2022/06/13 11:01:19;;;;;;;7.07;1.27;;;20.00;63.70;;;;;;4740366;30;20421;-73
2022/06/13 11:04:15;;;;;;;4.65;1.10;;;19.90;63.40;;;;;;4756062;30;20043;-74
2022/06/13 11:06:44;;;;;;;5.72;1.77;;;19.80;63.30;;;;;;4757536;30;20044;-76
2022/06/13 11:09:44;;;;;;;6.65;1.48;;;19.80;63.20;;;;;;4754387;30;20066;-74
2022/06/13 11:12:27;;;;;;;4.43;1.30;;;19.80;63.20;;;;;;4742957;30;20074;-77
2022/06/13 11:23:13;;;;;;;6.35;2.25;;;19.80;63.60;;;;;;4774238;30;20055;-76
2022/06/13 11:25:39;;;;;;;7.40;1.90;;;19.80;63.50;;;;;;4774458;30;20042;-73
2022/06/13 11:28:10;;;;;;;10.00;2.10;;;19.80;64.30;;;;;;4758883;30;20052;-76
2022/06/13 11:30:43;;;;;;;5.00;1.50;;;19.70;64.30;;;;;;4759591;30;20059;-76
2022/06/13 11:33:09;;;;;;;7.85;1.58;;;19.70;64.30;;;;;;4775872;30;20066;-74
2022/06/13 11:35:57;;;;;;;6.03;2.30;;;19.70;63.50;;;;;;4774248;30;20055;-75
2022/06/13 11:38:34;;;;;;;6.75;1.30;;;19.70;63.50;;;;;;4774966;30;20538;-76
2022/06/13 11:41:18;;;;;;;5.95;1.45;;;19.70;62.90;;;;;;4758427;30;20110;-74
2022/06/13 11:44:02;;;;;;;5.32;1.63;;;19.60;62.60;;;;;;4774705;30;20151;-74
2022/06/13 11:46:27;;;;;;;8.40;1.67;;;19.60;62.30;;;;;;4774799;30;20453;-75
2022/06/13 11:48:55;;;;;;;8.45;1.75;;;19.50;62.30;;;;;;4757330;30;20125;-76
2022/06/13 11:51:27;;;;;;;5.85;1.27;;;19.60;62.30;;;;;;4774403;30;20054;-74
2022/06/13 11:53:57;;;;;;;3.85;1.35;;;19.60;62.00;;;;;;4773776;30;20075;-74
2022/06/13 11:56:31;;;;;;;7.18;1.30;;;19.50;62.00;;;;;;4773577;30;20059;-78
2022/06/13 11:59:02;;;;;;;7.63;1.50;;;19.50;62.00;;;;;;4757882;30;20062;-77
2022/06/13 12:01:37;;;;;;;7.93;1.20;;;19.50;62.20;;;;;;4773342;30;20066;-76
2022/06/13 12:04:21;;;;;;;9.27;1.20;;;19.60;62.40;;;;;;4774086;30;20059;-76
2022/06/13 12:06:57;;;;;;;5.25;1.60;;;19.60;62.50;;;;;;4758385;30;20052;-76
2022/06/13 12:09:31;;;;;;;5.15;1.45;;;19.70;62.60;;;;;;4774059;30;20058;-76
2022/06/13 12:11:59;;;;;;;;;;;19.70;62.50;;;;;;4773312;30;20135;-77
2022/06/13 12:14:26;;;;;;;6.43;1.55;;;19.70;62.70;;;;;;4773947;30;20083;-75
2022/06/13 12:17:17;;;;;;;3.83;0.82;;;19.80;62.70;;;;;;4774377;30;20435;-76
2022/06/13 12:20:00;;;;;;;5.55;1.52;;;19.80;62.70;;;;;;4773238;29;20062;-78
2022/06/13 12:22:40;;;;;;;5.30;1.50;;;19.80;62.70;;;;;;4773689;30;20063;-77
2022/06/13 12:25:12;;;;;;;5.00;1.17;;;19.80;62.70;;;;;;4773552;30;20051;-76
2022/06/13 12:28:03;;;;;;;4.22;0.95;;;19.90;62.80;;;;;;4773091;30;20060;-76
2022/06/13 12:30:50;;;;;;;8.65;1.27;;;19.90;62.80;;;;;;4773416;30;20083;-76
2022/06/13 12:33:22;;;;;;;7.05;1.88;;;19.90;62.90;;;;;;4774219;30;20064;-74
2022/06/13 12:36:26;;;;;;;5.55;1.58;;;20.00;62.60;;;;;;4773631;30;20047;-77
2022/06/13 12:39:13;;;;;;;4.35;1.20;;;19.90;62.30;;;;;;4745696;30;20067;-76
2022/06/13 12:41:52;;;;;;;6.53;0.93;;;19.90;62.40;;;;;;4757934;30;20095;-76
2022/06/13 12:44:33;;;;;;;4.00;1.20;;;19.90;62.20;;;;;;4773148;30;20135;-75
2022/06/13 12:47:12;;;;;;;4.88;1.02;;;19.90;62.10;;;;;;4758068;30;20491;-76
2022/06/13 12:49:52;;;;;;;4.20;0.90;;;19.90;62.00;;;;;;4773028;30;20135;-77
2022/06/13 12:52:42;;;;;;;4.05;1.10;;;19.90;61.80;;;;;;4773318;30;20129;-75
2022/06/13 12:55:23;;;;;;;7.95;1.35;;;19.90;61.70;;;;;;4772920;30;20063;-74
2022/06/13 12:58:15;;;;;;;6.53;1.80;;;19.90;61.30;;;;;;4757024;30;20066;-80
2022/06/13 13:00:52;;;;;;;3.10;1.10;;;19.90;61.20;;;;;;4757250;30;20052;-77
2022/06/13 13:03:45;;;;;;;9.38;1.42;;;19.80;61.40;;;;;;4773017;30;20121;-78
2022/06/13 13:06:41;;;;;;;6.10;1.60;;;19.90;62.00;;;;;;4742121;30;20143;-78
2022/06/13 13:09:15;;;;;;;7.05;1.40;;;19.90;62.20;;;;;;4757332;30;20094;-78
2022/06/13 13:11:59;;;;;;;9.27;1.50;;;19.90;62.20;;;;;;4772432;30;20052;-77
2022/06/13 13:14:33;;;;;;;;;;;19.90;62.30;;;;;;4772891;30;20051;-78
2022/06/13 13:17:05;;;;;;;;;;;19.90;62.30;;;;;;4757610;30;19937;-79
2022/06/13 13:19:50;;;;;;;12.10;2.08;;;19.90;62.20;;;;;;4772129;30;19929;-79
2022/06/13 13:22:25;;;;;;;13.90;1.42;;;19.90;61.90;;;;;;4754805;30;20056;-77
2022/06/13 18:44:15;;;;;;;7.45;1.52;;;20.00;61.10;;;;;;5350849;24;20056;-76
2022/06/13 18:46:42;;;;;;;5.85;1.13;;;20.00;61.00;;;;;;4754433;30;20082;-73
2022/06/13 18:49:09;;;;;;;6.22;1.63;;;20.00;61.10;;;;;;4746244;30;20456;-74
2022/06/13 18:51:35;;;;;;;5.93;1.30;;;20.00;61.20;;;;;;4768731;30;20083;-74
2022/06/13 18:54:02;;;;;;;6.50;1.50;;;20.00;61.30;;;;;;4771065;30;20355;-78
2022/06/13 18:56:28;;;;;;;8.50;2.20;;;20.00;61.30;;;;;;4771862;30;20098;-76
2022/06/13 18:58:55;;;;;;;4.38;1.50;;;20.00;61.30;;;;;;4771775;30;20048;-76
2022/06/13 19:01:22;;;;;;;5.50;1.40;;;20.00;61.50;;;;;;4759560;30;20117;-78
2022/06/13 19:03:52;;;;;;;10.63;1.70;;;20.10;61.70;;;;;;4754050;30;20091;-78
2022/06/13 19:06:20;;;;;;;7.35;1.40;;;20.10;61.80;;;;;;4753899;30;20052;-75
2022/06/13 19:08:47;;;;;;;7.18;1.67;;;20.10;61.70;;;;;;4753554;30;20056;-77
2022/06/13 19:11:17;;;;;;;8.65;2.00;;;20.10;61.90;;;;;;4753469;30;20108;-77
2022/06/13 19:13:45;;;;;;;8.02;1.63;;;20.10;62.00;;;;;;4759646;30;20043;-78
2022/06/13 19:16:12;;;;;;;6.30;1.40;;;20.10;62.20;;;;;;4771527;30;20052;-73
2022/06/13 19:18:39;;;;;;;6.93;1.75;;;20.10;62.30;;;;;;4771634;30;20097;-75
2022/06/13 19:21:05;;;;;;;4.53;1.30;;;20.10;62.40;;;;;;4772027;30;20131;-76
2022/06/13 19:23:31;;;;;;;6.72;1.50;;;20.10;62.50;;;;;;4767559;30;20056;-75
2022/06/13 19:25:59;;;;;;;4.40;1.55;;;20.10;62.60;;;;;;4759087;30;20054;-73
2022/06/13 19:28:30;;;;;;;6.53;2.03;;;20.10;62.70;;;;;;4774728;30;20364;-74
2022/06/13 19:30:56;;;;;;;7.00;1.25;;;20.10;62.70;;;;;;4764629;30;20067;-74
2022/06/13 19:33:22;;;;;;;4.82;1.30;;;20.10;62.80;;;;;;4756102;30;20457;-78
2022/06/13 19:35:53;;;;;;;4.50;1.05;;;20.10;62.90;;;;;;4756125;30;20052;-78
2022/06/13 19:38:20;;;;;;;7.65;1.73;;;20.10;63.10;;;;;;4756650;30;20066;-75
2022/06/13 19:40:52;;;;;;;5.28;1.02;;;20.10;63.10;;;;;;4756243;30;20139;-77
2022/06/13 19:43:19;;;;;;;5.57;1.30;;;20.10;63.20;;;;;;4739200;30;20416;-81
2022/06/13 19:45:45;;;;;;;6.47;1.15;;;20.10;63.30;;;;;;4736328;30;20071;-79
2022/06/13 19:48:11;;;;;;;7.25;1.60;;;20.00;63.40;;;;;;4774299;30;20052;-76
2022/06/13 19:50:40;;;;;;;7.80;1.67;;;20.00;63.40;;;;;;4774128;30;20039;-77
2022/06/13 19:53:10;;;;;;;6.38;1.23;;;20.00;63.40;;;;;;4774017;30;20051;-78
2022/06/13 19:55:51;;;;;;;5.00;1.40;;;20.00;63.40;;;;;;4763811;30;20127;-77
2022/06/13 19:58:19;;;;;;;3.90;1.27;;;20.00;63.40;;;;;;4756522;30;20427;-76
2022/06/13 20:00:47;;;;;;;5.43;1.17;;;20.10;63.50;;;;;;4757041;30;20052;-78
2022/06/13 20:03:14;;;;;;;5.60;1.13;;;20.00;63.50;;;;;;4784138;30;20052;-78
2022/06/13 20:08:31;;;;;;;5.95;1.45;;;20.00;63.30;;;;;;4758893;30;20062;-77
2022/06/13 20:10:58;;;;;;;6.93;1.02;;;20.00;62.90;;;;;;4773840;30;20051;-77
2022/06/13 20:13:28;;;;;;;6.13;1.48;;;19.90;61.80;;;;;;4763126;30;20061;-80
2022/06/13 20:15:57;;;;;;;6.13;1.30;;;19.80;61.00;;;;;;4756014;30;20059;-79
2022/06/13 20:18:24;;;;;;;5.45;1.42;;;19.70;60.40;;;;;;4756346;30;20052;-78
2022/06/13 20:20:50;;;;;;;4.00;0.85;;;19.60;60.10;;;;;;4755592;30;20060;-80
2022/06/13 20:23:16;;;;;;;5.28;1.25;;;19.50;59.90;;;;;;4769799;30;20066;-77
2022/06/13 20:25:42;;;;;;;5.45;1.20;;;19.40;59.70;;;;;;4766862;30;20048;-80
2022/06/13 20:28:10;;;;;;;10.63;2.05;;;19.30;59.60;;;;;;4757749;30;20123;-79
2022/06/13 20:30:48;;;;;;;5.07;1.27;;;19.20;59.40;;;;;;4773315;30;20568;-79
2022/06/13 20:33:23;;;;;;;6.95;1.63;;;19.20;59.40;;;;;;4772456;30;20504;-78
2022/06/13 20:35:52;;;;;;;5.20;1.20;;;19.10;59.20;;;;;;4773333;30;20052;-78
2022/06/13 20:38:17;;;;;;;8.25;1.20;;;19.00;59.20;;;;;;4773627;30;20352;-79
2022/06/13 20:40:44;;;;;;;9.85;2.08;;;19.00;59.20;;;;;;4773075;30;20051;-77
2022/06/13 20:43:14;;;;;;;6.88;1.55;;;19.00;59.20;;;;;;4772711;30;20059;-78
2022/06/13 20:45:41;;;;;;;7.28;1.65;;;18.90;59.20;;;;;;4784327;30;20129;-76
2022/06/13 20:48:15;;;;;;;9.07;1.48;;;18.80;59.30;;;;;;4783336;30;20055;-80
2022/06/13 20:50:48;;;;;;;8.70;1.60;;;18.80;59.40;;;;;;4772865;30;20081;-78
2022/06/13 20:53:15;;;;;;;7.65;1.77;;;18.80;59.50;;;;;;4757037;30;20055;-76
2022/06/13 20:55:41;;;;;;;6.72;1.35;;;18.80;59.60;;;;;;4760631;30;20055;-77
2022/06/13 20:58:07;;;;;;;5.40;1.20;;;18.70;59.50;;;;;;4773092;30;20048;-80
2022/06/13 21:00:34;;;;;;;8.98;1.58;;;18.70;59.50;;;;;;4754086;30;20048;-77
2022/06/13 21:03:03;;;;;;;5.85;1.52;;;18.60;59.40;;;;;;4787024;30;20063;-79
2022/06/13 21:05:31;;;;;;;6.65;1.50;;;18.60;59.40;;;;;;4782120;30;20108;-77
2022/06/13 21:07:58;;;;;;;9.60;1.67;;;18.60;59.50;;;;;;4772877;30;20044;-78
2022/06/13 21:10:25;;;;;;;5.13;1.70;;;18.60;59.70;;;;;;4771719;30;20135;-77
2022/06/13 21:12:55;;;;;;;5.97;1.63;;;18.50;59.70;;;;;;4772269;30;20060;-77
2022/06/13 21:15:23;;;;;;;9.73;2.00;;;18.50;59.50;;;;;;4772897;30;20518;-78
2022/06/13 21:17:49;;;;;;;8.95;2.13;;;18.50;59.60;;;;;;4772955;30;20087;-76
2022/06/13 21:20:16;;;;;;;6.95;1.58;;;18.50;59.60;;;;;;4772499;30;20171;-79
2022/06/13 21:22:45;;;;;;;6.97;1.70;;;18.40;59.60;;;;;;4772553;30;20052;-79
2022/06/13 21:25:15;;;;;;;10.27;2.05;;;18.40;59.60;;;;;;4785009;30;20055;-78
2022/06/13 21:27:41;;;;;;;6.85;1.77;;;18.40;59.80;;;;;;4763625;30;20056;-76
2022/06/13 21:30:08;;;;;;;4.53;1.52;;;18.40;59.80;;;;;;4756880;30;20142;-76
2022/06/13 21:32:35;;;;;;;7.90;1.58;;;18.30;59.80;;;;;;4759940;30;20047;-76
2022/06/13 21:35:02;;;;;;;7.70;1.48;;;18.30;59.90;;;;;;4764586;30;20059;-77
2022/06/13 21:37:27;;;;;;;7.97;1.42;;;18.30;59.80;;;;;;4772414;30;20120;-78
2022/06/13 21:39:53;;;;;;;8.80;1.52;;;18.30;59.80;;;;;;4772559;30;20142;-78
2022/06/13 21:42:19;;;;;;;7.35;2.10;;;18.20;59.90;;;;;;4784773;30;20140;-76
2022/06/13 21:44:51;;;;;;;6.68;1.60;;;18.20;59.90;;;;;;4784318;30;20059;-77
2022/06/13 21:47:17;;;;;;;8.90;1.80;;;18.20;60.00;;;;;;4785688;30;20495;-77
2022/06/13 21:49:43;;;;;;;8.52;2.03;;;18.20;59.90;;;;;;4788586;30;20047;-76
2022/06/13 21:52:08;;;;;;;7.93;1.52;;;18.20;59.70;;;;;;4789762;30;20047;-78
2022/06/13 21:54:34;;;;;;;7.28;1.52;;;18.20;59.70;;;;;;4785942;30;20047;-76
2022/06/13 21:57:00;;;;;;;4.15;1.38;;;18.10;59.60;;;;;;4771820;30;20391;-76
2022/06/13 21:59:26;;;;;;;8.20;2.10;;;18.10;59.60;;;;;;4771268;30;20070;-77
2022/06/13 22:01:52;;;;;;;9.25;1.58;;;18.10;59.70;;;;;;4772039;30;20051;-78
2022/06/13 22:04:18;;;;;;;7.90;1.90;;;18.10;59.60;;;;;;4771869;30;20085;-78
2022/06/13 22:06:44;;;;;;;7.65;1.92;;;18.10;59.70;;;;;;4772505;30;20091;-78
2022/06/13 22:09:10;;;;;;;8.73;1.88;;;18.00;59.60;;;;;;4772384;30;20120;-78
2022/06/13 22:11:36;;;;;;;7.95;2.33;;;18.00;59.70;;;;;;4773580;30;20383;-77
2022/06/13 22:14:02;;;;;;;7.65;1.85;;;18.00;59.70;;;;;;4775899;30;20472;-77
2022/06/13 22:16:27;;;;;;;8.05;2.15;;;18.00;59.70;;;;;;4785034;30;20051;-75
2022/06/13 22:18:54;;;;;;;8.18;2.22;;;18.00;59.70;;;;;;4774837;30;20493;-76
2022/06/13 22:21:21;;;;;;;8.63;2.92;;;18.00;59.80;;;;;;4790068;30;20421;-77